Time;durP1;ratioP1;P1;durP2;ratioP2;P2;SDS_P1;SDS_P2;PMS_P1;PMS_P2;Temp;Humidity;BMP_temperature;BMP_pressure;BME280_temperature;BME280_humidity;BME280_pressure;Samples;Min_cycle;Max_cycle;Signal;HPM_P1;HPM_P2
2022/11/03 00:02:25;;;;;;;47.95;7.35;;;;;;;;;;6270287;22;20023;-60
2022/11/03 00:06:03;;;;;;;62.55;7.90;;;;;;;;;;6267031;22;20026;-60
2022/11/03 00:07:46;;;;;;;59.42;7.72;;;;;;;;;;6270311;22;20091;-47
2022/11/03 00:10:20;;;;;;;52.33;6.90;;;;;;;;;;6272605;22;20055;-59
2022/11/03 00:12:54;;;;;;;58.05;7.15;;;;;;;;;;6269436;22;20027;-63
2022/11/03 00:15:21;;;;;;;59.08;6.95;;;;;;;;;;6270648;22;20031;-64
2022/11/03 00:17:48;;;;;;;48.60;6.47;;;;;;;;;;6269614;22;20049;-64
2022/11/03 00:20:21;;;;;;;54.63;6.57;;;;;;;;;;6271850;22;20404;-64
2022/11/03 00:22:49;;;;;;;46.72;6.97;;;;;;;;;;6269984;22;20099;-64
2022/11/03 00:25:22;;;;;;;59.85;7.15;;;;;;;;;;6271668;22;20662;-63
2022/11/03 00:27:54;;;;;;;47.65;5.85;;;;;;;;;;6269728;22;20051;-65
2022/11/03 00:30:22;;;;;;;54.83;7.20;;;;;;;;;;6271933;22;20015;-57
2022/11/03 00:32:58;;;;;;;59.25;6.25;;;;;;;;;;6269390;22;20030;-57
2022/11/03 00:35:25;;;;;;;49.53;6.68;;;;;;;;;;6270675;22;20499;-58
2022/11/03 00:37:59;;;;;;;49.33;7.53;;;;;;;;;;6269917;22;20655;-57
2022/11/03 00:40:26;;;;;;;52.47;6.25;;;;;;;;;;6272162;22;20400;-57
2022/11/03 00:42:53;;;;;;;40.13;6.63;;;;;;;;;;6284793;22;20102;-58
2022/11/03 00:45:33;;;;;;;41.78;6.38;;;;;;;;;;6301732;22;20023;-59
2022/11/03 00:50:53;;;;;;;50.42;6.13;;;;;;;;;;6301090;22;20015;-58
2022/11/03 00:53:20;;;;;;;59.08;6.85;;;;;;;;;;6301995;22;20101;-59
2022/11/03 00:55:49;;;;;;;34.47;5.75;;;;;;;;;;6301236;22;20494;-58
2022/11/03 00:58:23;;;;;;;43.10;6.10;;;;;;;;;;6301874;22;20015;-59
2022/11/03 01:00:50;;;;;;;38.70;5.00;;;;;;;;;;6302510;22;20026;-58
2022/11/03 01:03:24;;;;;;;60.22;7.22;;;;;;;;;;6301902;22;20030;-57
2022/11/03 01:08:44;;;;;;;54.40;6.28;;;;;;;;;;6302755;22;20026;-64
2022/11/03 01:14:07;;;;;;;43.00;5.35;;;;;;;;;;6300899;22;20027;-64
2022/11/03 01:16:34;;;;;;;42.55;5.65;;;;;;;;;;6301293;22;20022;-64
2022/11/03 01:19:01;;;;;;;43.47;6.07;;;;;;;;;;6301094;22;20363;-64
2022/11/03 01:21:35;;;;;;;36.33;5.55;;;;;;;;;;6301692;22;20102;-64
2022/11/03 01:24:03;;;;;;;37.17;6.30;;;;;;;;;;6300837;22;20058;-59
2022/11/03 01:26:37;;;;;;;47.03;6.45;;;;;;;;;;6300733;22;20431;-59
2022/11/03 01:29:04;;;;;;;45.67;5.95;;;;;;;;;;6299522;22;20098;-50
2022/11/03 01:31:31;;;;;;;42.92;5.88;;;;;;;;;;6301686;22;20102;-48
2022/11/03 01:34:05;;;;;;;57.47;6.82;;;;;;;;;;6301069;22;20025;-53
2022/11/03 01:36:32;;;;;;;44.80;6.03;;;;;;;;;;6301067;22;20015;-52
2022/11/03 01:39:05;;;;;;;48.35;6.70;;;;;;;;;;6301272;22;20022;-52
2022/11/03 01:41:33;;;;;;;44.10;6.55;;;;;;;;;;6299845;22;20030;-54
2022/11/03 01:44:13;;;;;;;31.70;5.72;;;;;;;;;;6300352;22;20026;-60
2022/11/03 01:46:41;;;;;;;35.50;5.15;;;;;;;;;;6301217;22;20478;-60
2022/11/03 01:49:36;;;;;;;44.72;6.10;;;;;;;;;;6301085;22;20062;-60
2022/11/03 01:52:07;;;;;;;48.50;5.90;;;;;;;;;;6301702;22;20015;-60
2022/11/03 01:54:42;;;;;;;40.80;5.70;;;;;;;;;;6301138;22;20024;-60
2022/11/03 01:57:12;;;;;;;52.15;7.28;;;;;;;;;;6300305;22;20022;-60
2022/11/03 01:59:40;;;;;;;46.42;5.70;;;;;;;;;;6300639;22;20105;-60
2022/11/03 02:02:14;;;;;;;50.47;6.68;;;;;;;;;;6302271;22;20099;-51
2022/11/03 02:04:42;;;;;;;45.10;5.72;;;;;;;;;;6300448;22;20538;-52
2022/11/03 02:07:29;;;;;;;39.70;5.68;;;;;;;;;;6300649;22;20026;-60
2022/11/03 02:09:56;;;;;;;47.88;6.00;;;;;;;;;;6300122;22;20727;-60
2022/11/03 02:12:30;;;;;;;39.03;5.40;;;;;;;;;;6300239;22;20472;-61
2022/11/03 02:14:57;;;;;;;;;;;;;;;;;;6302109;22;20563;-60
2022/11/03 02:17:25;;;;;;;43.50;5.13;;;;;;;;;;6299918;22;19915;-60
2022/11/03 02:20:02;;;;;;;44.63;6.50;;;;;;;;;;6300158;22;20019;-60
2022/11/03 02:22:32;;;;;;;42.88;5.53;;;;;;;;;;6300448;22;20460;-49
2022/11/03 02:25:24;;;;;;;52.95;5.57;;;;;;;;;;6300627;22;20094;-50
2022/11/03 02:27:51;;;;;;;38.50;5.32;;;;;;;;;;6273361;22;20020;-51
2022/11/03 02:30:26;;;;;;;34.38;5.22;;;;;;;;;;6300421;22;20026;-51
2022/11/03 02:33:05;;;;;;;37.33;5.10;;;;;;;;;;6299931;22;20291;-51
2022/11/03 02:35:48;;;;;;;47.20;6.63;;;;;;;;;;6301865;22;20047;-50
2022/11/03 02:38:16;;;;;;;44.60;5.40;;;;;;;;;;6301640;22;20443;-51
2022/11/03 02:40:52;;;;;;;55.38;7.28;;;;;;;;;;6300564;22;20015;-50
2022/11/03 02:43:20;;;;;;;45.72;6.22;;;;;;;;;;6301755;22;20102;-59
2022/11/03 02:45:55;;;;;;;44.35;6.20;;;;;;;;;;6301779;22;20104;-59
2022/11/03 02:48:22;;;;;;;;;;;;;;;;;;6301321;22;20023;-59
2022/11/03 02:50:55;;;;;;;43.97;5.80;;;;;;;;;;6301301;22;19921;-59
2022/11/03 02:53:23;;;;;;;48.83;6.82;;;;;;;;;;6300449;22;20025;-59
2022/11/03 02:56:02;;;;;;;44.70;6.60;;;;;;;;;;6299264;22;20506;-59
2022/11/03 02:58:47;;;;;;;49.78;5.88;;;;;;;;;;6301256;22;20095;-57
2022/11/03 03:01:35;;;;;;;53.83;6.10;;;;;;;;;;6301339;22;20019;-60
2022/11/03 03:04:04;;;;;;;41.42;6.32;;;;;;;;;;6298477;22;20022;-59
2022/11/03 03:06:45;;;;;;;45.72;6.32;;;;;;;;;;6301072;22;20154;-59
2022/11/03 03:09:17;;;;;;;51.63;6.72;;;;;;;;;;6300036;22;20019;-59
2022/11/03 03:11:53;;;;;;;47.90;7.32;;;;;;;;;;6300962;22;20098;-59
2022/11/03 03:14:25;;;;;;;67.90;8.07;;;;;;;;;;6301338;22;20019;-60
2022/11/03 03:17:08;;;;;;;51.50;6.80;;;;;;;;;;6299570;22;20482;-59
2022/11/03 03:19:35;;;;;;;48.72;6.93;;;;;;;;;;6301022;22;20070;-64
2022/11/03 03:22:35;;;;;;;52.28;7.65;;;;;;;;;;6301518;22;20090;-57
2022/11/03 03:25:11;;;;;;;51.75;6.85;;;;;;;;;;6293033;22;20030;-59
2022/11/03 03:27:55;;;;;;;52.55;8.50;;;;;;;;;;6299505;22;20027;-58
2022/11/03 03:30:22;;;;;;;44.00;6.25;;;;;;;;;;6300943;22;20023;-58
2022/11/03 03:32:56;;;;;;;54.88;8.35;;;;;;;;;;6298611;22;20543;-57
2022/11/03 03:35:25;;;;;;;53.42;8.02;;;;;;;;;;6300001;22;20102;-58
2022/11/03 03:38:03;;;;;;;46.22;7.85;;;;;;;;;;6300183;22;20094;-62
2022/11/03 03:40:33;;;;;;;53.78;8.32;;;;;;;;;;6300205;22;20031;-59
2022/11/03 03:43:22;;;;;;;44.58;8.35;;;;;;;;;;6299388;22;20355;-58
2022/11/03 03:45:57;;;;;;;52.28;8.52;;;;;;;;;;6299655;22;20062;-59
2022/11/03 03:48:32;;;;;;;52.05;8.63;;;;;;;;;;6297757;22;20494;-58
2022/11/03 03:51:00;;;;;;;60.40;7.35;;;;;;;;;;6300423;22;20098;-59
2022/11/03 03:53:29;;;;;;;57.83;8.13;;;;;;;;;;6300310;22;20015;-58
2022/11/03 03:56:04;;;;;;;60.03;7.80;;;;;;;;;;6300046;22;20490;-61
2022/11/03 03:58:31;;;;;;;47.55;7.60;;;;;;;;;;6300349;22;20102;-48
2022/11/03 04:01:06;;;;;;;63.03;9.10;;;;;;;;;;6298441;22;20731;-61
2022/11/03 04:03:33;;;;;;;;;;;;;;;;;;6299395;22;20027;-61
2022/11/03 04:06:07;;;;;;;64.65;8.93;;;;;;;;;;6300219;22;19923;-61
2022/11/03 04:08:34;;;;;;;60.05;9.02;;;;;;;;;;6300839;22;20661;-61
2022/11/03 04:22:31;;;;;;;62.67;10.38;;;;;;;;;;6217283;22;20362;-57
2022/11/03 04:25:05;;;;;;;63.88;10.27;;;;;;;;;;6300046;22;20020;-58
2022/11/03 04:27:36;;;;;;;66.05;11.07;;;;;;;;;;6300289;22;20057;-58
2022/11/03 04:30:10;;;;;;;57.13;10.35;;;;;;;;;;6301083;22;20019;-59
2022/11/03 04:32:37;;;;;;;75.70;11.18;;;;;;;;;;6299207;22;20551;-59
2022/11/03 04:35:18;;;;;;;66.28;10.77;;;;;;;;;;6300333;22;20351;-60
2022/11/03 04:37:48;;;;;;;71.95;11.75;;;;;;;;;;6300888;22;20019;-51
2022/11/03 04:40:22;;;;;;;66.80;10.88;;;;;;;;;;6301139;22;20023;-51
2022/11/03 04:43:10;;;;;;;57.65;10.75;;;;;;;;;;6299883;22;20106;-53
2022/11/03 04:45:45;;;;;;;56.35;10.68;;;;;;;;;;6302017;22;20025;-54
2022/11/03 04:48:21;;;;;;;61.35;10.75;;;;;;;;;;6302965;22;20019;-55
2022/11/03 04:50:49;;;;;;;59.10;11.25;;;;;;;;;;6302447;22;20024;-51
2022/11/03 04:53:24;;;;;;;61.40;10.82;;;;;;;;;;6301990;22;20030;-51
2022/11/03 04:55:52;;;;;;;56.92;10.45;;;;;;;;;;6302334;22;20027;-59
2022/11/03 04:58:22;;;;;;;68.47;11.18;;;;;;;;;;6252858;22;20023;-62
2022/11/03 05:00:58;;;;;;;58.13;10.43;;;;;;;;;;6302191;22;20023;-62
2022/11/03 05:03:34;;;;;;;60.97;10.50;;;;;;;;;;6301756;22;20024;-62
2022/11/03 05:06:10;;;;;;;56.45;11.32;;;;;;;;;;6302818;22;20047;-61
2022/11/03 05:08:45;;;;;;;79.43;12.13;;;;;;;;;;6301088;22;20019;-62
2022/11/03 05:11:27;;;;;;;60.25;11.57;;;;;;;;;;6303004;22;20140;-62
2022/11/03 05:14:02;;;;;;;56.25;11.02;;;;;;;;;;6301380;22;20026;-62
2022/11/03 05:16:29;;;;;;;61.95;11.13;;;;;;;;;;6301481;22;20027;-62
2022/11/03 05:18:56;;;;;;;56.08;11.13;;;;;;;;;;6301741;22;20478;-62
2022/11/03 05:21:30;;;;;;;51.10;10.95;;;;;;;;;;6300432;22;20023;-62
2022/11/03 05:24:00;;;;;;;56.00;11.05;;;;;;;;;;6301321;22;20528;-62
2022/11/03 05:26:34;;;;;;;57.53;10.85;;;;;;;;;;6301686;22;20545;-62
2022/11/03 05:29:14;;;;;;;49.50;10.98;;;;;;;;;;6301545;22;20102;-61
2022/11/03 05:31:48;;;;;;;55.45;10.75;;;;;;;;;;6300584;22;20419;-60
2022/11/03 05:34:21;;;;;;;60.70;11.05;;;;;;;;;;6302340;22;20456;-61
2022/11/03 05:36:55;;;;;;;55.28;10.38;;;;;;;;;;6299449;22;20384;-59
2022/11/03 05:39:35;;;;;;;45.90;10.35;;;;;;;;;;6300485;22;20026;-59
2022/11/03 05:42:20;;;;;;;44.83;9.18;;;;;;;;;;6302649;22;20058;-60
2022/11/03 05:44:53;;;;;;;51.97;9.70;;;;;;;;;;6301406;22;20086;-59
2022/11/03 05:47:32;;;;;;;45.42;9.23;;;;;;;;;;6277053;22;20026;-58
2022/11/03 05:50:23;;;;;;;45.03;10.05;;;;;;;;;;6302044;22;20027;-59
2022/11/03 05:52:53;;;;;;;39.40;8.93;;;;;;;;;;6298658;22;20081;-59
2022/11/03 05:55:29;;;;;;;52.67;9.82;;;;;;;;;;6298999;22;20033;-62
2022/11/03 05:57:58;;;;;;;36.33;8.63;;;;;;;;;;6299895;22;20059;-62
2022/11/03 06:00:33;;;;;;;41.50;8.15;;;;;;;;;;6301459;22;20061;-63
2022/11/03 06:03:00;;;;;;;46.83;7.75;;;;;;;;;;6296333;22;20020;-62
2022/11/03 06:05:28;;;;;;;37.47;7.28;;;;;;;;;;6299683;22;20054;-61
2022/11/03 06:08:09;;;;;;;51.50;8.27;;;;;;;;;;6299097;22;20025;-61
2022/11/03 06:10:52;;;;;;;37.00;7.80;;;;;;;;;;6299701;22;20106;-65
2022/11/03 06:13:26;;;;;;;38.40;6.75;;;;;;;;;;6273253;22;20101;-59
2022/11/03 06:16:05;;;;;;;42.90;7.03;;;;;;;;;;6298153;22;20074;-59
2022/11/03 06:18:34;;;;;;;44.75;7.30;;;;;;;;;;6299647;22;20015;-59
2022/11/03 06:21:18;;;;;;;32.92;6.03;;;;;;;;;;6299923;22;20392;-59
2022/11/03 06:23:46;;;;;;;28.55;6.03;;;;;;;;;;6297718;22;20030;-59
2022/11/03 06:26:24;;;;;;;38.17;5.47;;;;;;;;;;6297091;22;20019;-59
2022/11/03 06:28:51;;;;;;;32.38;6.47;;;;;;;;;;6299092;22;20019;-53
2022/11/03 06:31:18;;;;;;;48.58;7.38;;;;;;;;;;6298138;22;20023;-60
2022/11/03 06:33:53;;;;;;;35.50;6.53;;;;;;;;;;6298748;22;20110;-65
2022/11/03 06:36:22;;;;;;;38.15;6.10;;;;;;;;;;6299850;22;20368;-65
2022/11/03 06:39:09;;;;;;;32.70;5.93;;;;;;;;;;6296991;22;20019;-65
2022/11/03 06:41:43;;;;;;;33.20;6.07;;;;;;;;;;6298647;22;20049;-66
2022/11/03 06:44:31;;;;;;;45.13;7.07;;;;;;;;;;6298013;22;20379;-66
2022/11/03 06:47:20;;;;;;;34.22;5.70;;;;;;;;;;6293796;22;20022;-61
2022/11/03 06:49:56;;;;;;;29.60;5.70;;;;;;;;;;6272977;22;20439;-51
2022/11/03 06:52:31;;;;;;;29.20;5.70;;;;;;;;;;6297689;22;20029;-66
2022/11/03 06:55:21;;;;;;;34.17;6.25;;;;;;;;;;6298653;22;20049;-66
2022/11/03 06:57:58;;;;;;;32.05;5.75;;;;;;;;;;6297921;22;20023;-66
2022/11/03 07:00:32;;;;;;;38.70;6.20;;;;;;;;;;6299299;22;20328;-64
2022/11/03 07:03:02;;;;;;;38.55;5.53;;;;;;;;;;6300498;22;20183;-66
2022/11/03 07:05:29;;;;;;;;;;;;;;;;;;6302021;22;20065;-66
2022/11/03 07:08:09;;;;;;;38.80;5.70;;;;;;;;;;6299876;22;20115;-59
2022/11/03 07:10:36;;;;;;;30.25;4.80;;;;;;;;;;6301078;22;20019;-65
2022/11/03 07:13:13;;;;;;;33.42;5.88;;;;;;;;;;6301317;22;20400;-66
2022/11/03 07:15:41;;;;;;;30.33;5.15;;;;;;;;;;6300469;22;20061;-66
2022/11/03 07:18:25;;;;;;;19.20;4.68;;;;;;;;;;6300002;22;20551;-66
2022/11/03 07:20:53;;;;;;;35.03;4.97;;;;;;;;;;6300148;22;20395;-65
2022/11/03 07:23:30;;;;;;;36.65;5.40;;;;;;;;;;6301080;22;20033;-65
2022/11/03 07:25:58;;;;;;;36.97;5.07;;;;;;;;;;6300667;22;20091;-60
2022/11/03 07:28:34;;;;;;;32.28;4.90;;;;;;;;;;6301893;22;20482;-61
2022/11/03 07:31:21;;;;;;;29.00;4.72;;;;;;;;;;6301477;22;20118;-60
2022/11/03 07:33:49;;;;;;;22.40;4.70;;;;;;;;;;6299874;22;20023;-60
2022/11/03 07:36:23;;;;;;;27.05;4.60;;;;;;;;;;6300679;22;20033;-61
2022/11/03 07:38:52;;;;;;;36.80;4.38;;;;;;;;;;6300369;22;20054;-61
2022/11/03 07:41:28;;;;;;;31.08;4.15;;;;;;;;;;6301343;22;20424;-61
2022/11/03 07:44:09;;;;;;;29.20;4.55;;;;;;;;;;6299591;22;20020;-60
2022/11/03 07:46:43;;;;;;;24.88;4.45;;;;;;;;;;6300972;22;20342;-59
2022/11/03 07:49:19;;;;;;;28.55;4.45;;;;;;;;;;6300626;22;20182;-66
2022/11/03 07:51:53;;;;;;;42.55;5.53;;;;;;;;;;6300367;22;20015;-65
2022/11/03 07:54:22;;;;;;;;;;;;;;;;;;6300010;22;20098;-65
2022/11/03 07:56:54;;;;;;;23.13;3.75;;;;;;;;;;6300460;22;19921;-66
2022/11/03 07:59:30;;;;;;;26.58;3.63;;;;;;;;;;6299442;22;20457;-66
2022/11/03 08:01:58;;;;;;;28.30;4.03;;;;;;;;;;6301210;22;20028;-66
2022/11/03 08:04:33;;;;;;;21.92;3.95;;;;;;;;;;6301254;22;20024;-62
2022/11/03 08:07:01;;;;;;;24.52;4.57;;;;;;;;;;6299430;22;20119;-63
2022/11/03 08:09:35;;;;;;;21.02;4.05;;;;;;;;;;6299898;22;20023;-63
2022/11/03 08:12:03;;;;;;;20.73;4.00;;;;;;;;;;6299566;22;20777;-63
2022/11/03 08:14:30;;;;;;;21.98;4.10;;;;;;;;;;6300959;22;20046;-63
2022/11/03 08:17:04;;;;;;;31.90;5.18;;;;;;;;;;6303141;22;20027;-63
2022/11/03 08:19:31;;;;;;;23.58;3.90;;;;;;;;;;6303335;22;20373;-63
2022/11/03 08:22:05;;;;;;;27.40;3.88;;;;;;;;;;6301267;22;20495;-63
2022/11/03 08:24:32;;;;;;;25.02;4.47;;;;;;;;;;6303399;22;20122;-48
2022/11/03 08:26:59;;;;;;;25.98;4.15;;;;;;;;;;6301903;22;20506;-51
2022/11/03 08:29:33;;;;;;;28.77;4.50;;;;;;;;;;6301351;22;20090;-52
2022/11/03 08:32:00;;;;;;;26.10;4.00;;;;;;;;;;6301415;22;20106;-53
2022/11/03 08:34:27;;;;;;;28.27;4.70;;;;;;;;;;6302265;22;20025;-52
2022/11/03 08:37:01;;;;;;;27.00;4.70;;;;;;;;;;6301512;22;20460;-53
2022/11/03 08:39:30;;;;;;;24.42;4.18;;;;;;;;;;6303494;22;20094;-51
2022/11/03 08:42:04;;;;;;;20.67;4.00;;;;;;;;;;6302469;22;20073;-59
2022/11/03 08:44:37;;;;;;;26.63;4.20;;;;;;;;;;6301799;22;20020;-65
2022/11/03 08:47:18;;;;;;;24.02;5.20;;;;;;;;;;6303143;22;20023;-64
2022/11/03 08:49:46;;;;;;;22.17;4.38;;;;;;;;;;6301851;22;20468;-66
2022/11/03 08:52:20;;;;;;;21.17;3.92;;;;;;;;;;6302724;22;20050;-65
2022/11/03 08:54:47;;;;;;;;;;;;;;;;;;6303079;22;20025;-66
2022/11/03 08:57:14;;;;;;;16.98;3.10;;;;;;;;;;6302321;22;19918;-67
2022/11/03 08:59:48;;;;;;;17.00;3.65;;;;;;;;;;6301566;22;20432;-65
2022/11/03 09:02:15;;;;;;;32.85;4.70;;;;;;;;;;6302780;22;20094;-54
2022/11/03 09:04:49;;;;;;;26.33;4.85;;;;;;;;;;6302196;22;20022;-52
2022/11/03 09:07:16;;;;;;;25.67;4.20;;;;;;;;;;6301634;22;20019;-51
2022/11/03 09:09:43;;;;;;;;;;;;;;;;;;6302802;22;20117;-51
2022/11/03 09:12:38;;;;;;;19.13;3.63;;;;;;;;;;6301163;22;19915;-50
2022/11/03 09:15:05;;;;;;;21.55;3.58;;;;;;;;;;6299793;22;20402;-51
2022/11/03 09:17:39;;;;;;;22.08;4.20;;;;;;;;;;6299849;22;20023;-53
2022/11/03 09:20:11;;;;;;;20.85;3.85;;;;;;;;;;6300366;22;20078;-60
2022/11/03 09:22:45;;;;;;;29.88;4.88;;;;;;;;;;6300395;22;20030;-50
2022/11/03 09:25:12;;;;;;;26.00;4.35;;;;;;;;;;6300444;22;20084;-58
2022/11/03 09:27:39;;;;;;;27.45;4.13;;;;;;;;;;6299558;22;20015;-59
2022/11/03 09:30:13;;;;;;;21.60;4.10;;;;;;;;;;6302847;22;20051;-59
2022/11/03 09:32:41;;;;;;;27.55;4.82;;;;;;;;;;6300909;22;20023;-58
2022/11/03 09:35:15;;;;;;;15.73;4.20;;;;;;;;;;6299656;22;20026;-57
2022/11/03 09:37:43;;;;;;;24.73;4.35;;;;;;;;;;6301712;22;20469;-59
2022/11/03 09:40:13;;;;;;;23.77;4.55;;;;;;;;;;6302550;22;20015;-60
2022/11/03 09:42:54;;;;;;;21.80;3.58;;;;;;;;;;6298204;22;20098;-59
2022/11/03 09:45:27;;;;;;;25.45;4.53;;;;;;;;;;6267937;22;20183;-59
2022/11/03 09:48:01;;;;;;;25.17;3.78;;;;;;;;;;6268791;22;20020;-60
2022/11/03 09:50:28;;;;;;;;;;;;;;;;;;6271027;22;20020;-59
2022/11/03 09:53:02;;;;;;;21.50;4.00;;;;;;;;;;6268805;22;19930;-59
2022/11/03 09:55:29;;;;;;;25.50;4.20;;;;;;;;;;6269735;22;20051;-59
2022/11/03 09:58:00;;;;;;;20.33;3.80;;;;;;;;;;6271308;22;20027;-66
2022/11/03 10:00:34;;;;;;;35.85;4.70;;;;;;;;;;6270100;22;20437;-59
2022/11/03 10:03:02;;;;;;;22.77;4.65;;;;;;;;;;6269346;22;20679;-56
2022/11/03 10:05:36;;;;;;;26.38;5.45;;;;;;;;;;6268838;22;20353;-56
2022/11/03 10:08:05;;;;;;;20.23;3.78;;;;;;;;;;6269593;22;20026;-51
2022/11/03 10:10:44;;;;;;;26.75;4.10;;;;;;;;;;6270669;22;20051;-50
2022/11/03 10:13:17;;;;;;;26.02;4.53;;;;;;;;;;6267859;22;20457;-52
2022/11/03 10:15:51;;;;;;;31.58;5.07;;;;;;;;;;6270266;22;20023;-52
2022/11/03 10:18:26;;;;;;;18.48;3.92;;;;;;;;;;6271136;22;20132;-60
2022/11/03 10:20:53;;;;;;;26.75;5.18;;;;;;;;;;6269997;22;20020;-53
2022/11/03 10:23:20;;;;;;;24.33;4.00;;;;;;;;;;6269497;22;20026;-53
2022/11/03 10:26:03;;;;;;;21.55;4.53;;;;;;;;;;6268919;22;20020;-51
2022/11/03 10:28:37;;;;;;;29.23;4.85;;;;;;;;;;6269659;22;20033;-51
2022/11/03 10:31:07;;;;;;;24.90;4.18;;;;;;;;;;6270163;22;20024;-50
2022/11/03 10:34:00;;;;;;;24.15;4.28;;;;;;;;;;6268804;22;20027;-51
2022/11/03 10:36:27;;;;;;;;;;;;;;;;;;6271018;22;20099;-58
2022/11/03 10:39:23;;;;;;;23.58;4.45;;;;;;;;;;6244396;22;19994;-60
2022/11/03 10:41:57;;;;;;;27.08;4.32;;;;;;;;;;6269292;22;20027;-60
2022/11/03 10:44:38;;;;;;;20.75;4.65;;;;;;;;;;6288609;22;20130;-60
2022/11/03 10:47:08;;;;;;;30.83;5.40;;;;;;;;;;6300828;22;20360;-59
2022/11/03 10:49:42;;;;;;;32.13;4.65;;;;;;;;;;6300578;22;20023;-60
2022/11/03 10:52:16;;;;;;;20.50;4.82;;;;;;;;;;6300621;22;20042;-60
2022/11/03 10:54:51;;;;;;;21.25;4.45;;;;;;;;;;6300254;22;20023;-53
2022/11/03 10:57:19;;;;;;;29.30;4.35;;;;;;;;;;6300597;22;20023;-60
2022/11/03 10:59:53;;;;;;;28.73;4.47;;;;;;;;;;6300150;22;20025;-64
2022/11/03 11:02:22;;;;;;;26.80;4.68;;;;;;;;;;6299671;22;20565;-65
2022/11/03 11:04:53;;;;;;;25.38;4.20;;;;;;;;;;6299913;22;20015;-65
2022/11/03 11:07:35;;;;;;;24.73;4.78;;;;;;;;;;6300161;22;20023;-66
2022/11/03 11:10:13;;;;;;;27.17;4.88;;;;;;;;;;6300119;22;20105;-66
2022/11/03 11:13:05;;;;;;;28.45;5.00;;;;;;;;;;6299063;22;20106;-65
2022/11/03 11:15:42;;;;;;;27.95;4.85;;;;;;;;;;6300506;22;20038;-60
2022/11/03 11:18:28;;;;;;;27.55;4.25;;;;;;;;;;6299381;22;20106;-60
2022/11/03 11:20:55;;;;;;;29.38;5.20;;;;;;;;;;6299595;22;20098;-59
2022/11/03 11:23:29;;;;;;;23.15;4.07;;;;;;;;;;6299770;22;20041;-60
2022/11/03 11:26:08;;;;;;;26.48;4.72;;;;;;;;;;6299665;22;20106;-60
2022/11/03 11:29:00;;;;;;;23.17;4.78;;;;;;;;;;6300060;22;20747;-60
2022/11/03 11:31:32;;;;;;;23.42;4.95;;;;;;;;;;6299305;22;20025;-60
2022/11/03 11:34:06;;;;;;;;;;;;;;;;;;6300018;22;20342;-60
2022/11/03 11:36:33;;;;;;;19.10;3.95;;;;;;;;;;6301262;22;19918;-49
2022/11/03 11:39:00;;;;;;;14.13;3.97;;;;;;;;;;6300478;22;20029;-51
2022/11/03 11:41:52;;;;;;;26.20;4.57;;;;;;;;;;6300188;22;20098;-48
2022/11/03 11:44:39;;;;;;;22.25;3.97;;;;;;;;;;6299878;22;20480;-50
2022/11/03 11:47:38;;;;;;;25.17;4.07;;;;;;;;;;6300730;22;20090;-53
2022/11/03 11:50:05;;;;;;;29.48;5.15;;;;;;;;;;6301961;22;20025;-53
2022/11/03 11:52:44;;;;;;;21.33;4.28;;;;;;;;;;6304035;22;20077;-66
2022/11/03 11:55:26;;;;;;;27.00;4.72;;;;;;;;;;6304275;22;20019;-59
2022/11/03 11:58:01;;;;;;;30.20;5.05;;;;;;;;;;6302115;22;20102;-58
2022/11/03 12:00:35;;;;;;;24.40;4.65;;;;;;;;;;6304212;22;20015;-58
2022/11/03 12:03:14;;;;;;;24.67;4.72;;;;;;;;;;6303249;22;20023;-59
2022/11/03 12:05:49;;;;;;;15.38;4.05;;;;;;;;;;6302911;22;20460;-59
2022/11/03 12:08:30;;;;;;;28.48;5.28;;;;;;;;;;6278092;22;20025;-58
2022/11/03 12:11:05;;;;;;;19.10;3.92;;;;;;;;;;6302689;22;20486;-60
2022/11/03 12:13:35;;;;;;;20.08;4.28;;;;;;;;;;6303414;22;20030;-58
2022/11/03 12:16:09;;;;;;;31.70;4.80;;;;;;;;;;6303839;22;20019;-48
2022/11/03 12:18:36;;;;;;;;;;;;;;;;;;6304029;22;20424;-50
2022/11/03 12:21:08;;;;;;;20.70;4.60;;;;;;;;;;6303673;22;19915;-50
2022/11/03 12:23:43;;;;;;;18.40;3.55;;;;;;;;;;6302471;22;20015;-52
2022/11/03 12:26:28;;;;;;;24.38;4.32;;;;;;;;;;6302461;22;20027;-49
2022/11/03 12:29:04;;;;;;;26.20;4.40;;;;;;;;;;6303314;22;20122;-50
2022/11/03 12:31:31;;;;;;;23.75;4.18;;;;;;;;;;6304218;22;20425;-66
2022/11/03 12:34:03;;;;;;;24.33;4.45;;;;;;;;;;6303845;22;20027;-60
2022/11/03 12:36:37;;;;;;;24.45;4.25;;;;;;;;;;6302685;22;20351;-60
2022/11/03 12:39:04;;;;;;;22.15;4.15;;;;;;;;;;6303388;22;20025;-60
2022/11/03 12:41:31;;;;;;;17.95;4.05;;;;;;;;;;6302973;22;20023;-61
2022/11/03 12:44:19;;;;;;;29.25;5.05;;;;;;;;;;6303016;22;20355;-60
2022/11/03 12:46:53;;;;;;;25.77;4.78;;;;;;;;;;6302955;22;20394;-60
2022/11/03 12:49:27;;;;;;;19.15;3.78;;;;;;;;;;6303279;22;20026;-52
2022/11/03 12:51:54;;;;;;;21.73;4.38;;;;;;;;;;6303055;22;20531;-66
2022/11/03 12:54:34;;;;;;;23.25;4.20;;;;;;;;;;6303537;22;20015;-60
2022/11/03 12:57:01;;;;;;;23.88;4.40;;;;;;;;;;6302717;22;20080;-60
2022/11/03 12:59:35;;;;;;;21.15;4.63;;;;;;;;;;6302525;22;20740;-59
2022/11/03 13:02:10;;;;;;;20.77;4.00;;;;;;;;;;6301068;22;20084;-60
2022/11/03 13:04:38;;;;;;;18.80;4.43;;;;;;;;;;6301156;22;20066;-60
2022/11/03 13:07:05;;;;;;;27.30;4.95;;;;;;;;;;6299051;22;20287;-60
2022/11/03 13:09:39;;;;;;;20.48;4.85;;;;;;;;;;6302288;22;20094;-60
2022/11/03 13:15:07;;;;;;;21.15;4.00;;;;;;;;;;6301307;22;20427;-58
2022/11/03 13:17:34;;;;;;;23.20;4.18;;;;;;;;;;6301072;22;20105;-59
2022/11/03 13:20:21;;;;;;;23.45;4.28;;;;;;;;;;6301231;22;20023;-58
2022/11/03 13:22:55;;;;;;;24.85;4.68;;;;;;;;;;6299037;22;20023;-59
2022/11/03 13:25:23;;;;;;;24.42;4.30;;;;;;;;;;6294524;22;20027;-58
2022/11/03 13:27:57;;;;;;;17.25;3.72;;;;;;;;;;6301021;22;20027;-49
2022/11/03 13:30:25;;;;;;;25.25;5.20;;;;;;;;;;6302311;22;20090;-48
2022/11/03 13:32:52;;;;;;;18.13;3.50;;;;;;;;;;6299230;22;20034;-58
2022/11/03 13:35:26;;;;;;;18.75;4.22;;;;;;;;;;6299408;22;20345;-58
2022/11/03 13:37:53;;;;;;;20.58;4.18;;;;;;;;;;6294609;22;20026;-58
2022/11/03 13:40:20;;;;;;;25.15;4.85;;;;;;;;;;6298199;22;20092;-59
2022/11/03 13:43:28;;;;;;;29.98;4.65;;;;;;;;;;6298207;22;20019;-58
2022/11/03 13:46:03;;;;;;;22.57;4.30;;;;;;;;;;6267639;22;20503;-66
2022/11/03 13:48:37;;;;;;;23.55;4.78;;;;;;;;;;6266524;22;20253;-65
2022/11/03 13:51:24;;;;;;;19.25;3.97;;;;;;;;;;6268872;22;20353;-53
2022/11/03 13:53:58;;;;;;;31.75;4.72;;;;;;;;;;6267883;22;20038;-54
2022/11/03 13:56:45;;;;;;;27.30;4.05;;;;;;;;;;6267537;22;20026;-53
2022/11/03 13:59:39;;;;;;;26.50;4.05;;;;;;;;;;6268328;22;20019;-55
2022/11/03 14:02:06;;;;;;;;;;;;;;;;;;6269498;22;20024;-54
2022/11/03 14:05:00;;;;;;;27.15;4.30;;;;;;;;;;6269206;22;19919;-52
2022/11/03 14:07:30;;;;;;;23.02;4.60;;;;;;;;;;6268682;22;20324;-65
2022/11/03 14:10:04;;;;;;;27.60;4.63;;;;;;;;;;6242934;22;20077;-60
2022/11/03 14:12:31;;;;;;;23.65;4.30;;;;;;;;;;6269467;22;20058;-60
2022/11/03 14:15:06;;;;;;;27.05;4.60;;;;;;;;;;6268242;22;20095;-59
2022/11/03 14:17:33;;;;;;;30.95;4.75;;;;;;;;;;6266178;22;20034;-59
2022/11/03 14:20:01;;;;;;;23.92;4.18;;;;;;;;;;6269871;22;20055;-60
2022/11/03 14:22:34;;;;;;;24.45;4.25;;;;;;;;;;6269080;22;20676;-59
2022/11/03 14:25:02;;;;;;;24.92;4.65;;;;;;;;;;6269561;22;20386;-65
2022/11/03 14:27:36;;;;;;;35.80;5.13;;;;;;;;;;6268200;22;20020;-66
2022/11/03 14:30:04;;;;;;;27.95;4.93;;;;;;;;;;6269328;22;20016;-64
2022/11/03 14:32:31;;;;;;;29.77;4.55;;;;;;;;;;6269367;22;20030;-65
2022/11/03 14:35:06;;;;;;;22.33;3.97;;;;;;;;;;6268512;22;20069;-65
2022/11/03 14:37:33;;;;;;;25.80;5.10;;;;;;;;;;6269965;22;20026;-64
2022/11/03 14:42:01;;;;;;;24.33;4.35;;;;;;;;;;6269076;22;20034;-65
2022/11/03 14:42:54;;;;;;;31.80;4.65;;;;;;;;;;6267671;22;20099;-66
2022/11/03 14:45:35;;;;;;;27.95;4.18;;;;;;;;;;6295892;22;20034;-64
2022/11/03 14:48:07;;;;;;;26.65;4.45;;;;;;;;;;6300911;22;20098;-65
2022/11/03 14:50:41;;;;;;;21.90;4.68;;;;;;;;;;6300174;22;20059;-65
2022/11/03 14:53:08;;;;;;;23.88;4.38;;;;;;;;;;6298327;22;20027;-65
2022/11/03 14:55:35;;;;;;;20.77;4.30;;;;;;;;;;6300913;22;20026;-65
2022/11/03 14:58:09;;;;;;;22.55;3.78;;;;;;;;;;6296882;22;20023;-65
2022/11/03 15:00:37;;;;;;;21.27;4.13;;;;;;;;;;6299541;22;20022;-65
2022/11/03 15:03:10;;;;;;;19.92;4.70;;;;;;;;;;6297941;22;20023;-65
2022/11/03 15:05:43;;;;;;;20.08;3.80;;;;;;;;;;6300589;22;20094;-59
2022/11/03 15:08:17;;;;;;;19.40;4.50;;;;;;;;;;6300005;22;20368;-60
2022/11/03 15:10:44;;;;;;;;;;;;;;;;;;6301046;22;20059;-59
2022/11/03 15:13:12;;;;;;;27.13;4.60;;;;;;;;;;6299554;22;19925;-59
2022/11/03 15:15:46;;;;;;;16.58;3.80;;;;;;;;;;6299549;22;20026;-59
2022/11/03 15:18:13;;;;;;;23.60;3.55;;;;;;;;;;6300365;22;20030;-58
2022/11/03 15:20:47;;;;;;;24.60;4.32;;;;;;;;;;6300230;22;20027;-59
2022/11/03 15:23:14;;;;;;;19.63;3.50;;;;;;;;;;6299787;22;20019;-65
2022/11/03 15:26:02;;;;;;;17.98;3.78;;;;;;;;;;6299807;22;20019;-58
2022/11/03 15:28:36;;;;;;;18.02;4.25;;;;;;;;;;6300546;22;20101;-58
2022/11/03 15:31:03;;;;;;;16.58;3.72;;;;;;;;;;6299605;22;20019;-58
2022/11/03 15:33:37;;;;;;;18.80;3.88;;;;;;;;;;6301195;22;20114;-58
2022/11/03 15:36:05;;;;;;;17.30;3.55;;;;;;;;;;6300614;22;20020;-57